Time;durP1;ratioP1;P1;durP2;ratioP2;P2;SDS_P1;SDS_P2;PMS_P1;PMS_P2;Temp;Humidity;BMP_temperature;BMP_pressure;BME280_temperature;BME280_humidity;BME280_pressure;Samples;Min_cycle;Max_cycle;Signal;HPM_P1;HPM_P2
2022/03/25 00:00:36;;;;;;;9.60;4.00;;;;;;;2.69;46.24;99499.06;25170;1313;3026642;-65
2022/03/25 00:03:07;;;;;;;9.70;4.60;;;;;;;2.68;45.89;99496.84;25140;1313;3058242;-63
2022/03/25 00:05:36;;;;;;;9.70;4.30;;;;;;;2.74;45.53;99496.17;25136;1313;3026811;-64
2022/03/25 00:08:05;;;;;;;11.40;4.00;;;;;;;2.75;45.73;99492.85;25074;1313;3050328;-68
2022/03/25 00:10:54;;;;;;;12.00;4.70;;;;;;;2.79;45.57;99493.95;25133;1313;3057451;-62
2022/03/25 00:13:23;;;;;;;9.50;3.90;;;;;;;2.78;45.60;99488.10;25101;1313;3028674;-64
2022/03/25 00:15:54;;;;;;;12.90;4.50;;;;;;;2.76;45.72;99489.19;25133;1313;3054717;-65
2022/03/25 00:18:23;;;;;;;12.90;4.70;;;;;;;2.75;45.85;99489.92;25083;1313;3026621;-66
2022/03/25 00:20:56;;;;;;;13.30;5.40;;;;;;;2.73;45.87;99485.83;25156;1313;3055085;-66
2022/03/25 00:23:25;;;;;;;15.00;5.20;;;;;;;2.71;45.92;99486.90;25076;1313;3026234;-65
2022/03/25 00:25:56;;;;;;;12.80;4.30;;;;;;;2.74;45.79;99483.55;25070;1313;3051359;-66
2022/03/25 00:28:25;;;;;;;14.20;4.20;;;;;;;2.76;45.69;99485.03;25073;1313;3026228;-62
2022/03/25 00:30:54;;;;;;;12.90;4.70;;;;;;;2.81;45.18;99484.89;25149;1311;3026475;-64
2022/03/25 00:33:25;;;;;;;10.00;4.10;;;;;;;2.88;44.83;99486.61;25132;1313;3052046;-65
2022/03/25 00:35:54;;;;;;;18.60;4.90;;;;;;;2.88;45.25;99489.70;25173;1312;3026258;-63
2022/03/25 00:38:24;;;;;;;11.50;4.40;;;;;;;2.89;45.24;99489.15;25168;1313;3071042;-65
2022/03/25 00:40:55;;;;;;;10.50;3.60;;;;;;;2.95;44.85;99487.09;25089;1315;3026559;-67
2022/03/25 00:43:24;;;;;;;9.50;3.70;;;;;;;3.00;44.89;99488.30;25168;1315;3026292;-62
2022/03/25 00:45:54;;;;;;;11.30;4.40;;;;;;;2.98;45.35;99481.63;25106;1315;3026310;-64
2022/03/25 00:48:23;;;;;;;11.10;4.10;;;;;;;2.96;45.72;99478.92;25060;1313;3026342;-65
2022/03/25 00:50:53;;;;;;;11.90;4.90;;;;;;;2.95;45.65;99481.55;25123;1313;3051794;-64
2022/03/25 00:53:22;;;;;;;13.20;4.70;;;;;;;2.93;46.15;99479.70;25166;1312;3027081;-65
2022/03/25 00:55:52;;;;;;;10.50;4.00;;;;;;;2.92;45.82;99481.45;25148;1313;3048929;-61
2022/03/25 00:58:21;;;;;;;9.90;4.60;;;;;;;2.95;45.43;99482.41;25217;1313;3026002;-65
2022/03/25 01:00:50;;;;;;;10.30;4.30;;;;;;;2.92;45.79;99485.27;25164;1313;3071070;-64
2022/03/25 01:03:21;;;;;;;11.40;4.80;;;;;;;2.86;46.32;99483.70;25099;1313;3028792;-64
2022/03/25 01:05:52;;;;;;;11.30;4.70;;;;;;;2.84;46.44;99484.47;25080;1313;3028662;-62
2022/03/25 01:08:23;;;;;;;10.30;4.70;;;;;;;2.81;46.48;99485.41;25099;1313;3026086;-66
2022/03/25 01:10:53;;;;;;;12.90;5.20;;;;;;;2.77;46.70;99488.81;25163;1313;3026565;-63
2022/03/25 01:13:24;;;;;;;15.00;4.80;;;;;;;2.75;46.64;99487.31;25143;1313;3026618;-63
2022/03/25 01:15:53;;;;;;;9.40;5.00;;;;;;;2.73;46.89;99489.60;25110;1313;3026001;-64
2022/03/25 01:18:22;;;;;;;10.20;4.30;;;;;;;2.74;46.65;99490.63;25097;1313;3026272;-67
2022/03/25 01:20:51;;;;;;;13.20;5.00;;;;;;;2.76;46.46;99487.82;25082;1313;3051620;-63
2022/03/25 01:23:21;;;;;;;15.50;4.90;;;;;;;2.77;46.22;99490.90;25197;1313;3028968;-63
2022/03/25 01:25:50;;;;;;;14.40;4.60;;;;;;;2.76;46.51;99487.27;25153;1313;3058056;-64
2022/03/25 01:28:19;;;;;;;13.70;4.30;;;;;;;2.81;45.98;99488.18;25068;1313;3026453;-64
2022/03/25 01:30:49;;;;;;;9.80;3.90;;;;;;;2.88;45.57;99485.73;25129;1313;3050667;-65
2022/03/25 01:33:20;;;;;;;7.80;3.60;;;;;;;2.92;45.60;99488.91;25172;1313;3028134;-64
2022/03/25 01:35:48;;;;;;;11.10;4.20;;;;;;;2.90;45.42;99491.75;25128;1313;3026861;-67
2022/03/25 01:38:18;;;;;;;7.60;3.80;;;;;;;2.89;45.69;99495.41;25106;1313;3053350;-64
2022/03/25 01:40:47;;;;;;;13.00;4.60;;;;;;;2.87;46.06;99495.45;25185;1313;3026326;-63
2022/03/25 01:43:16;;;;;;;10.50;4.40;;;;;;;2.82;46.45;99495.94;25153;1313;3054341;-64
2022/03/25 01:45:45;;;;;;;9.20;4.30;;;;;;;2.81;46.35;99491.80;25143;1313;3026544;-62
2022/03/25 01:48:17;;;;;;;11.00;4.30;;;;;;;2.76;47.06;99496.80;25191;1313;3051913;-64
2022/03/25 01:50:47;;;;;;;9.50;4.50;;;;;;;2.76;46.55;99496.11;25141;1313;3026484;-64
2022/03/25 01:53:17;;;;;;;14.40;4.90;;;;;;;2.74;46.36;99500.15;25178;1313;3068589;-65
2022/03/25 01:55:57;;;;;;;9.50;4.50;;;;;;;2.70;46.69;99499.56;25185;1313;3026703;-65
2022/03/25 01:58:30;;;;;;;14.10;4.70;;;;;;;2.61;47.03;99496.70;25096;1313;3053353;-66
2022/03/25 02:01:02;;;;;;;9.90;4.30;;;;;;;2.55;47.05;99500.48;25130;1312;3026926;-63
2022/03/25 02:03:31;;;;;;;12.50;4.70;;;;;;;2.48;47.81;99502.56;25098;1313;3026970;-66
2022/03/25 02:06:00;;;;;;;13.60;4.50;;;;;;;2.46;47.56;99504.52;25133;1313;3028501;-64
2022/03/25 02:08:30;;;;;;;8.90;4.80;;;;;;;2.41;47.61;99502.23;25168;1313;3053329;-64
2022/03/25 02:11:19;;;;;;;10.30;4.60;;;;;;;2.39;47.51;99501.26;25181;1313;3056474;-67
2022/03/25 02:13:48;;;;;;;9.50;4.80;;;;;;;2.35;47.81;99501.19;25131;1313;3028690;-64
2022/03/25 02:16:38;;;;;;;13.50;5.50;;;;;;;2.31;48.14;99511.85;25133;1313;3051931;-63
2022/03/25 02:19:18;;;;;;;11.90;4.70;;;;;;;2.30;47.80;99512.20;25128;1313;3027309;-67
2022/03/25 02:22:08;;;;;;;14.50;5.10;;;;;;;2.29;48.32;99514.14;25066;1313;3049625;-66
2022/03/25 02:24:39;;;;;;;15.10;7.90;;;;;;;2.26;48.48;99518.02;25111;1313;3026923;-67
2022/03/25 02:27:08;;;;;;;15.40;9.50;;;;;;;2.28;48.42;99516.06;25222;1310;3026309;-64
2022/03/25 02:29:48;;;;;;;17.70;10.80;;;;;;;2.28;48.61;99519.00;25150;1313;3053977;-64
2022/03/25 02:32:19;;;;;;;23.20;12.10;;;;;;;2.25;48.96;99517.72;25102;1313;3026533;-65
2022/03/25 02:34:48;;;;;;;24.00;16.40;;;;;;;2.21;49.30;99520.05;25161;1312;3026610;-66
2022/03/25 02:37:19;;;;;;;24.70;15.00;;;;;;;2.19;49.26;99519.23;25137;1313;3026147;-68
2022/03/25 02:39:54;;;;;;;20.00;15.20;;;;;;;2.26;48.66;99519.58;25180;1311;3052687;-64
2022/03/25 02:42:23;;;;;;;20.10;12.70;;;;;;;2.29;48.95;99519.48;25200;1313;3027612;-66
2022/03/25 02:44:53;;;;;;;17.30;13.20;;;;;;;2.28;48.84;99517.45;25087;1312;3026708;-67
2022/03/25 02:47:22;;;;;;;22.20;13.50;;;;;;;2.27;49.30;99522.84;25124;1313;3054022;-64
2022/03/25 02:49:53;;;;;;;16.10;9.70;;;;;;;2.27;49.16;99523.35;25105;1312;3026868;-64
2022/03/25 02:52:22;;;;;;;17.60;9.80;;;;;;;2.34;48.22;99525.95;25175;1313;3026414;-67
2022/03/25 02:54:51;;;;;;;18.70;9.10;;;;;;;2.38;47.98;99524.96;25136;1313;3054436;-64
2022/03/25 02:57:20;;;;;;;16.90;9.10;;;;;;;2.39;47.85;99527.89;25144;1313;3028277;-64
2022/03/25 02:59:49;;;;;;;17.90;9.20;;;;;;;2.39;47.76;99530.65;25146;1311;3049226;-66
2022/03/25 03:02:18;;;;;;;14.00;7.60;;;;;;;2.42;47.54;99530.39;25135;1313;3026650;-64
2022/03/25 03:04:49;;;;;;;14.70;6.20;;;;;;;2.46;47.18;99525.63;25141;1313;3058738;-68
2022/03/25 03:07:18;;;;;;;10.50;5.80;;;;;;;2.47;47.32;99531.30;25186;1313;3026518;-66
2022/03/25 03:09:47;;;;;;;12.80;7.10;;;;;;;2.48;47.75;99531.45;25108;1313;3027239;-65
2022/03/25 03:12:18;;;;;;;12.90;5.30;;;;;;;2.43;47.69;99533.98;25116;1313;3027284;-66
2022/03/25 03:14:47;;;;;;;11.70;6.40;;;;;;;2.48;47.15;99539.58;25181;1313;3028177;-65
2022/03/25 03:17:27;;;;;;;12.60;6.70;;;;;;;2.51;47.90;99542.43;25190;1313;3055634;-64
2022/03/25 03:19:58;;;;;;;15.10;6.00;;;;;;;2.45;48.17;99545.02;25175;1313;3026057;-64
2022/03/25 03:22:48;;;;;;;13.00;5.90;;;;;;;2.45;48.14;99548.83;25119;1313;3068824;-66
2022/03/25 03:25:17;;;;;;;13.30;5.90;;;;;;;2.43;48.20;99548.36;25181;1313;3026732;-67
2022/03/25 03:27:46;;;;;;;15.30;4.80;;;;;;;2.40;48.14;99551.36;25177;1313;3026760;-62
2022/03/25 03:30:15;;;;;;;7.50;4.50;;;;;;;2.42;48.04;99548.04;25099;1313;3029362;-66
2022/03/25 03:32:45;;;;;;;13.40;5.20;;;;;;;2.44;47.80;99554.20;25160;1313;3051481;-67
2022/03/25 03:35:15;;;;;;;10.80;4.80;;;;;;;2.46;47.73;99552.08;25143;1313;3026881;-65
2022/03/25 03:37:46;;;;;;;10.60;4.60;;;;;;;2.49;47.41;99554.42;25118;1316;3026650;-66
2022/03/25 03:40:15;;;;;;;10.10;4.30;;;;;;;2.51;47.41;99555.77;25160;1313;3027506;-67
2022/03/25 03:42:45;;;;;;;13.80;5.30;;;;;;;2.49;48.08;99558.58;25187;1312;3026895;-66
2022/03/25 03:45:14;;;;;;;13.70;4.80;;;;;;;2.48;47.83;99561.52;25119;1313;3027260;-65
2022/03/25 03:47:46;;;;;;;17.00;4.40;;;;;;;2.50;47.60;99561.13;25154;1313;3058395;-65
2022/03/25 03:50:16;;;;;;;11.60;4.90;;;;;;;2.56;47.24;99565.48;25144;1314;3026575;-64
2022/03/25 03:52:46;;;;;;;11.10;4.70;;;;;;;2.56;47.37;99564.77;25177;1313;3027627;-65
2022/03/25 03:55:15;;;;;;;12.60;5.00;;;;;;;2.55;47.67;99567.94;25128;1313;3026510;-64
2022/03/25 03:57:45;;;;;;;15.00;6.10;;;;;;;2.50;48.29;99569.27;25151;1313;3053113;-66
2022/03/25 04:00:14;;;;;;;10.80;4.50;;;;;;;2.46;48.71;99573.33;25150;1313;3028767;-66
2022/03/25 04:02:46;;;;;;;15.10;4.80;;;;;;;2.41;49.13;99570.71;25151;1313;3057596;-66
2022/03/25 04:05:15;;;;;;;14.80;5.40;;;;;;;2.40;48.93;99572.13;25189;1313;3026424;-67
2022/03/25 04:07:46;;;;;;;14.30;5.80;;;;;;;2.41;49.37;99571.23;25169;1313;3051787;-66
2022/03/25 04:10:17;;;;;;;11.20;5.50;;;;;;;2.40;49.23;99574.02;25175;1313;3026637;-65
2022/03/25 04:12:46;;;;;;;12.80;5.50;;;;;;;2.39;49.29;99579.41;25193;1313;3026829;-67
2022/03/25 04:15:16;;;;;;;15.10;6.30;;;;;;;2.40;49.54;99585.09;25190;1313;3028796;-65
2022/03/25 04:17:46;;;;;;;14.00;5.80;;;;;;;2.41;49.11;99586.77;25090;1315;3026470;-67
2022/03/25 04:20:30;;;;;;;17.50;5.40;;;;;;;2.42;49.78;99585.20;25092;1316;3071098;-64
2022/03/25 04:22:59;;;;;;;11.70;5.10;;;;;;;2.43;49.55;99586.56;25115;1313;3026696;-66
2022/03/25 04:25:28;;;;;;;14.10;5.40;;;;;;;2.52;48.76;99588.23;25150;1313;3053876;-62
2022/03/25 04:28:18;;;;;;;13.80;6.00;;;;;;;2.51;49.41;99587.56;25119;1313;3067618;-63
2022/03/25 04:30:49;;;;;;;12.40;5.90;;;;;;;2.51;49.26;99590.00;25133;1313;3028073;-66
2022/03/25 04:33:18;;;;;;;17.30;5.60;;;;;;;2.48;49.54;99589.90;25216;1313;3026757;-65
2022/03/25 04:35:47;;;;;;;17.20;5.20;;;;;;;2.50;49.29;99594.86;25185;1313;3026416;-66
2022/03/25 04:38:16;;;;;;;14.30;5.10;;;;;;;2.54;49.20;99595.46;25153;1313;3050164;-64
2022/03/25 04:40:45;;;;;;;13.90;6.10;;;;;;;2.59;49.39;99597.92;25150;1313;3026457;-62
2022/03/25 04:43:14;;;;;;;15.40;6.20;;;;;;;2.58;50.08;99599.85;25160;1313;3067622;-65
2022/03/25 04:45:44;;;;;;;13.70;5.40;;;;;;;2.59;49.61;99601.21;24934;1311;3374116;-68
2022/03/25 04:48:14;;;;;;;12.60;5.70;;;;;;;2.64;49.56;99601.59;25194;1313;3027755;-67
2022/03/25 04:50:44;;;;;;;14.80;5.70;;;;;;;2.69;49.12;99600.25;25152;1313;3027673;-64
2022/03/25 04:53:13;;;;;;;13.40;6.00;;;;;;;2.72;49.34;99601.39;25209;1313;3026415;-64
2022/03/25 04:55:42;;;;;;;10.30;5.10;;;;;;;2.74;49.04;99602.02;25164;1312;3026967;-65
2022/03/25 04:58:11;;;;;;;12.90;5.50;;;;;;;2.82;48.67;99606.48;25099;1313;3054260;-66
2022/03/25 05:00:41;;;;;;;9.80;4.80;;;;;;;2.86;48.83;99611.58;25126;1313;3026489;-67
2022/03/25 05:03:12;;;;;;;16.40;6.00;;;;;;;2.88;48.82;99609.98;25161;1316;3026316;-67
2022/03/25 05:05:42;;;;;;;15.20;5.90;;;;;;;2.92;48.66;99610.89;25174;1313;3026929;-62
2022/03/25 05:08:30;;;;;;;11.90;5.90;;;;;;;2.96;48.71;99614.44;25137;1313;3053723;-64
2022/03/25 05:11:00;;;;;;;12.80;6.00;;;;;;;3.01;48.53;99619.65;25133;1313;3026490;-68
2022/03/25 05:13:30;;;;;;;11.90;5.90;;;;;;;3.08;48.14;99619.63;25151;1313;3027008;-65
2022/03/25 05:16:01;;;;;;;13.20;5.90;;;;;;;3.16;48.24;99624.09;25130;1313;3028131;-65
2022/03/25 05:18:30;;;;;;;13.60;5.90;;;;;;;3.24;47.76;99623.16;25180;1313;3026488;-64
2022/03/25 05:21:01;;;;;;;12.40;5.30;;;;;;;3.34;47.69;99630.67;25111;1313;3048128;-65
2022/03/25 05:23:30;;;;;;;13.90;5.10;;;;;;;3.41;47.31;99626.15;25182;1312;3026333;-68
2022/03/25 05:26:00;;;;;;;14.50;5.20;;;;;;;3.47;47.28;99632.06;25186;1313;3026872;-65
2022/03/25 05:28:29;;;;;;;12.30;5.90;;;;;;;3.48;47.32;99634.42;25172;1313;3026621;-65
2022/03/25 05:30:58;;;;;;;13.60;5.70;;;;;;;3.56;47.22;99638.72;25140;1312;3054105;-65
2022/03/25 05:33:28;;;;;;;13.80;5.80;;;;;;;3.62;47.11;99641.83;25098;1313;3026552;-67
2022/03/25 05:35:57;;;;;;;13.20;5.70;;;;;;;3.65;47.07;99644.02;25080;1313;3026102;-69
2022/03/25 05:38:26;;;;;;;18.80;5.50;;;;;;;3.73;46.75;99647.91;25156;1312;3052831;-65
2022/03/25 05:40:55;;;;;;;11.80;6.40;;;;;;;3.80;46.63;99650.66;25106;1313;3026386;-68
2022/03/25 05:43:25;;;;;;;13.00;6.40;;;;;;;3.80;46.61;99654.98;25146;1313;3051432;-66
2022/03/25 05:45:55;;;;;;;17.90;7.80;;;;;;;3.88;46.81;99656.31;25111;1313;3028298;-67
2022/03/25 05:48:24;;;;;;;19.30;7.70;;;;;;;3.93;46.56;99657.56;25152;1313;3026900;-66
2022/03/25 05:50:53;;;;;;;14.50;7.40;;;;;;;3.98;46.43;99659.30;25103;1312;3028853;-66
2022/03/25 05:53:22;;;;;;;19.70;7.10;;;;;;;4.00;46.36;99663.23;25080;1313;3055215;-70
2022/03/25 05:55:52;;;;;;;14.80;6.50;;;;;;;4.06;46.23;99664.78;25182;1313;3026553;-68
2022/03/25 05:58:21;;;;;;;17.10;6.70;;;;;;;4.07;45.96;99665.61;25151;1313;3027937;-66
2022/03/25 06:00:50;;;;;;;13.10;6.50;;;;;;;4.12;45.91;99670.14;25093;1313;3054586;-66
2022/03/25 06:03:20;;;;;;;16.90;6.60;;;;;;;4.13;45.82;99673.92;25105;1313;3027359;-64
2022/03/25 06:07:39;;;;;;;13.80;6.10;;;;;;;4.27;45.77;99680.79;31543;1320;3026392;-65
2022/03/25 06:10:11;;;;;;;19.20;9.30;;;;;;;4.64;45.22;99681.52;24943;1318;3051867;-68
2022/03/25 06:13:00;;;;;;;18.10;6.30;;;;;;;4.89;44.40;99683.29;25012;1318;3050686;-67
2022/03/25 06:15:30;;;;;;;16.70;7.30;;;;;;;4.86;44.34;99684.60;25096;1318;3026278;-66
2022/03/25 06:17:58;;;;;;;22.20;7.00;;;;;;;4.84;44.50;99686.57;25104;1318;3028641;-65
2022/03/25 06:20:28;;;;;;;15.20;6.30;;;;;;;4.87;44.77;99691.86;24955;1315;3237881;-66
2022/03/25 06:23:17;;;;;;;15.20;5.90;;;;;;;4.91;44.96;99694.49;25163;1315;3059076;-63
2022/03/25 06:25:46;;;;;;;15.00;6.10;;;;;;;5.01;44.55;99697.80;25102;1315;3026579;-66
2022/03/25 06:28:16;;;;;;;17.20;5.80;;;;;;;5.06;44.61;99700.10;25108;1315;3054071;-66
2022/03/25 06:30:45;;;;;;;13.50;5.40;;;;;;;5.05;44.75;99697.49;25140;1315;3030281;-68
2022/03/25 06:33:14;;;;;;;14.20;6.00;;;;;;;5.03;44.88;99708.67;25119;1315;3030744;-66
2022/03/25 06:35:44;;;;;;;16.30;5.90;;;;;;;5.03;45.23;99711.12;25165;1315;3054331;-65
2022/03/25 06:38:13;;;;;;;16.70;6.10;;;;;;;5.09;45.21;99715.44;25151;1315;3026565;-65
2022/03/25 06:40:42;;;;;;;15.90;6.20;;;;;;;5.15;45.10;99715.77;25111;1315;3026725;-65
2022/03/25 06:43:12;;;;;;;14.10;6.60;;;;;;;5.27;44.93;99716.71;25112;1315;3053935;-66
2022/03/25 06:45:40;;;;;;;15.60;6.80;;;;;;;5.34;44.92;99716.12;25119;1315;3028184;-66
2022/03/25 06:48:10;;;;;;;21.20;6.80;;;;;;;5.45;44.86;99722.02;25144;1315;3054399;-65
2022/03/25 06:50:39;;;;;;;17.90;6.80;;;;;;;5.59;44.68;99724.30;25165;1314;3027834;-66
2022/03/25 06:53:10;;;;;;;16.60;6.80;;;;;;;5.61;44.66;99728.73;25117;1315;3049332;-67
2022/03/25 06:55:40;;;;;;;13.40;6.70;;;;;;;5.67;44.56;99730.10;25106;1315;3027782;-66
2022/03/25 06:58:11;;;;;;;20.20;7.50;;;;;;;5.79;44.49;99732.96;25138;1315;3027019;-65
2022/03/25 07:00:40;;;;;;;15.40;6.70;;;;;;;5.92;44.18;99734.58;25139;1315;3026857;-67
2022/03/25 07:03:11;;;;;;;19.90;6.10;;;;;;;6.00;44.13;99741.58;25119;1315;3027068;-69
2022/03/25 07:05:41;;;;;;;20.20;7.00;;;;;;;6.02;44.06;99743.44;25147;1315;3026494;-64
2022/03/25 07:08:11;;;;;;;14.70;6.00;;;;;;;6.07;43.93;99740.97;25180;1315;3027050;-65
2022/03/25 07:10:59;;;;;;;13.30;5.50;;;;;;;6.09;44.07;99744.08;25128;1315;3069452;-66
2022/03/25 07:13:30;;;;;;;18.60;5.80;;;;;;;6.22;43.80;99747.40;25139;1315;3026880;-68
2022/03/25 07:15:59;;;;;;;19.40;6.10;;;;;;;6.36;43.56;99746.52;25115;1315;3026701;-67
2022/03/25 07:18:48;;;;;;;18.10;6.80;;;;;;;6.48;43.24;99750.21;25122;1315;3051923;-65
2022/03/25 07:21:17;;;;;;;17.70;7.60;;;;;;;6.57;42.91;99753.33;25115;1315;3027077;-65
2022/03/25 07:23:46;;;;;;;17.00;6.60;;;;;;;6.63;42.88;99753.63;25208;1315;3051937;-65
2022/03/25 07:26:17;;;;;;;17.10;6.20;;;;;;;6.73;42.89;99752.71;25187;1315;3026959;-66
2022/03/25 07:28:47;;;;;;;22.10;6.50;;;;;;;6.82;42.60;99754.23;25165;1315;3049647;-65
2022/03/25 07:31:16;;;;;;;14.60;6.40;;;;;;;6.86;42.61;99755.13;25147;1314;3026542;-65
2022/03/25 07:33:46;;;;;;;15.30;6.30;;;;;;;6.96;42.23;99760.30;25143;1315;3028172;-63
2022/03/25 07:36:15;;;;;;;15.80;5.60;;;;;;;7.13;42.07;99756.13;25179;1315;3028498;-63
2022/03/25 07:38:45;;;;;;;13.60;5.50;;;;;;;7.28;41.32;99756.20;25146;1315;3055138;-65
2022/03/25 07:41:15;;;;;;;16.80;5.90;;;;;;;7.31;41.12;99756.44;25136;1315;3026669;-66
2022/03/25 07:43:44;;;;;;;12.70;5.00;;;;;;;7.47;41.10;99756.78;25158;1315;3026831;-65
2022/03/25 07:46:13;;;;;;;16.00;4.70;;;;;;;7.63;40.55;99755.04;25080;1315;3026209;-65
2022/03/25 07:48:43;;;;;;;14.70;5.00;;;;;;;7.77;40.10;99753.55;25130;1315;3054986;-66
2022/03/25 07:51:12;;;;;;;10.20;4.90;;;;;;;7.83;39.77;99753.65;25143;1314;3026267;-65
2022/03/25 07:53:41;;;;;;;16.50;5.30;;;;;;;7.85;39.62;99754.61;25146;1315;3054282;-64
2022/03/25 07:56:11;;;;;;;18.80;7.20;;;;;;;7.88;39.62;99752.40;25142;1315;3026124;-67
2022/03/25 07:58:40;;;;;;;23.50;6.60;;;;;;;7.91;39.67;99753.98;25097;1315;3048650;-67
2022/03/25 08:01:09;;;;;;;13.80;5.60;;;;;;;8.07;39.71;99746.82;25152;1315;3029505;-67
2022/03/25 08:03:39;;;;;;;16.60;6.50;;;;;;;8.17;39.18;99752.63;25098;1315;3071189;-65
2022/03/25 08:06:09;;;;;;;11.60;4.60;;;;;;;8.33;39.14;99752.80;25146;1315;3026326;-69
2022/03/25 08:08:38;;;;;;;13.70;4.40;;;;;;;8.50;38.76;99749.23;25112;1315;3051594;-68
2022/03/25 08:11:08;;;;;;;13.90;4.60;;;;;;;8.57;38.39;99748.02;25150;1315;3029019;-67
2022/03/25 08:13:57;;;;;;;19.00;4.70;;;;;;;8.58;38.46;99752.88;25192;1315;3054830;-67
2022/03/25 08:16:26;;;;;;;15.50;4.70;;;;;;;8.61;38.31;99745.89;25127;1316;3026597;-68
2022/03/25 08:19:15;;;;;;;10.00;4.60;;;;;;;8.67;38.56;99747.16;25123;1315;3048823;-66
2022/03/25 08:21:44;;;;;;;12.90;5.60;;;;;;;8.85;38.17;99748.41;25119;1315;3026273;-65
2022/03/25 08:29:50;;;;;;;15.80;4.40;;;;;;;9.03;37.24;99747.02;25131;1315;3055677;-68
2022/03/25 08:32:19;;;;;;;12.10;4.40;;;;;;;9.02;37.26;99744.11;25128;1315;3026666;-68
2022/03/25 08:34:50;;;;;;;11.30;4.00;;;;;;;9.20;37.20;99745.62;25178;1315;3026070;-67
2022/03/25 08:37:19;;;;;;;12.60;4.30;;;;;;;9.35;36.82;99750.10;25135;1315;3026806;-67
2022/03/25 08:39:48;;;;;;;8.50;4.10;;;;;;;9.33;36.55;99746.02;25090;1315;3054160;-72
2022/03/25 08:42:17;;;;;;;18.70;5.20;;;;;;;9.32;36.61;99747.83;25074;1315;3028455;-66
2022/03/25 08:44:46;;;;;;;12.30;4.00;;;;;;;9.48;36.53;99743.34;25189;1313;3054364;-67
2022/03/25 08:47:16;;;;;;;13.80;3.90;;;;;;;9.59;36.38;99745.04;25137;1313;3026473;-67
2022/03/25 08:49:47;;;;;;;19.20;4.00;;;;;;;9.71;35.87;99742.30;25126;1313;3054009;-69
2022/03/25 08:52:17;;;;;;;15.20;3.60;;;;;;;9.71;35.72;99738.45;25099;1315;3028299;-67
2022/03/25 08:54:47;;;;;;;13.90;3.70;;;;;;;9.76;35.59;99741.89;25142;1315;3056295;-64
2022/03/25 08:57:17;;;;;;;14.90;3.40;;;;;;;9.74;35.61;99733.79;25127;1313;3026431;-70
2022/03/25 08:59:47;;;;;;;8.10;3.60;;;;;;;9.89;35.67;99734.21;25170;1313;3028216;-66
2022/03/25 09:02:16;;;;;;;13.40;3.80;;;;;;;10.07;35.19;99732.38;25124;1312;3058115;-66
2022/03/25 09:04:46;;;;;;;11.40;3.30;;;;;;;10.14;34.85;99728.67;25116;1315;3026308;-65
2022/03/25 09:07:16;;;;;;;13.20;3.80;;;;;;;10.21;34.74;99732.30;25100;1315;3051776;-67
2022/03/25 09:09:47;;;;;;;10.70;3.40;;;;;;;10.20;34.54;99729.02;25169;1315;3026656;-70
2022/03/25 09:12:15;;;;;;;11.40;3.80;;;;;;;10.36;34.41;99730.45;25137;1315;3028422;-67
2022/03/25 09:15:04;;;;;;;24.80;4.60;;;;;;;10.52;33.70;99731.84;25076;1315;3053507;-68
2022/03/25 09:17:34;;;;;;;10.90;4.00;;;;;;;10.62;33.47;99728.70;25139;1315;3026091;-71
2022/03/25 09:20:05;;;;;;;14.10;4.10;;;;;;;10.62;33.62;99725.71;25160;1313;3026259;-67
2022/03/25 09:22:35;;;;;;;14.70;3.10;;;;;;;10.54;33.65;99732.64;25222;1312;3026598;-67
2022/03/25 09:25:06;;;;;;;17.80;3.50;;;;;;;10.66;33.22;99733.01;25106;1315;3028540;-68
2022/03/25 09:27:36;;;;;;;11.40;3.20;;;;;;;10.69;33.07;99730.72;25150;1315;3026381;-69
2022/03/25 09:30:06;;;;;;;11.20;3.60;;;;;;;10.84;32.90;99731.42;25174;1315;3027348;-67
2022/03/25 09:32:36;;;;;;;13.90;3.20;;;;;;;10.99;32.61;99735.13;25155;1315;3026419;-66
2022/03/25 09:35:09;;;;;;;17.90;3.30;;;;;;;11.12;32.12;99733.31;25161;1315;3026796;-66
2022/03/25 09:37:45;;;;;;;11.80;3.30;;;;;;;11.16;32.08;99733.83;25172;1315;3026902;-66
2022/03/25 09:40:21;;;;;;;21.80;3.60;;;;;;;11.18;31.62;99732.47;25148;1315;3069293;-67
2022/03/25 09:42:51;;;;;;;14.60;3.20;;;;;;;11.13;32.03;99735.34;25101;1315;3052218;-66
2022/03/25 09:45:22;;;;;;;11.20;3.00;;;;;;;11.37;31.84;99736.77;25537;1313;3029126;-67
2022/03/25 09:47:51;;;;;;;10.70;3.20;;;;;;;11.51;31.45;99741.36;25116;1315;3026509;-68
2022/03/25 09:50:21;;;;;;;16.60;3.80;;;;;;;11.25;30.92;99737.51;25151;1313;3026444;-67
2022/03/25 09:52:51;;;;;;;14.30;3.50;;;;;;;11.36;30.92;99737.73;25113;1315;3055409;-67
2022/03/25 09:55:22;;;;;;;10.20;3.10;;;;;;;11.49;30.89;99742.92;25100;1313;3027010;-69
2022/03/25 09:57:51;;;;;;;13.20;4.00;;;;;;;11.58;30.67;99738.84;25143;1313;3026003;-68
2022/03/25 10:00:20;;;;;;;10.40;3.80;;;;;;;11.74;30.28;99735.95;25366;1313;3054491;-66
2022/03/25 10:02:50;;;;;;;23.80;4.60;;;;;;;11.77;30.47;99735.80;25159;1313;3026583;-67
2022/03/25 10:05:20;;;;;;;16.90;4.40;;;;;;;11.84;30.16;99737.13;25142;1315;3026043;-69
2022/03/25 10:07:54;;;;;;;12.60;4.80;;;;;;;11.98;30.00;99736.45;25112;1313;3026326;-66
2022/03/25 10:10:31;;;;;;;18.40;3.60;;;;;;;12.12;29.36;99732.44;25158;1314;3053355;-70
2022/03/25 10:13:07;;;;;;;18.80;3.60;;;;;;;12.22;29.29;99729.51;25160;1317;3028064;-70
2022/03/25 10:15:37;;;;;;;20.20;4.10;;;;;;;12.20;28.63;99733.16;25148;1313;3071360;-70
2022/03/25 10:18:07;;;;;;;14.70;4.00;;;;;;;12.13;28.92;99730.23;25113;1315;3026469;-72
2022/03/25 10:20:52;;;;;;;11.40;3.30;;;;;;;12.30;28.72;99731.66;25104;1313;3055450;-68
2022/03/25 10:23:22;;;;;;;14.10;3.80;;;;;;;12.28;28.16;99734.61;25166;1313;3026678;-71
2022/03/25 10:25:55;;;;;;;14.20;4.10;;;;;;;12.16;28.22;99727.42;25095;1315;3026703;-71
2022/03/25 10:28:29;;;;;;;15.50;3.30;;;;;;;12.24;28.48;99727.11;25185;1313;3052390;-72
2022/03/25 10:31:02;;;;;;;18.90;4.40;;;;;;;12.46;28.12;99723.77;25127;1313;3051559;-71
2022/03/25 10:33:32;;;;;;;16.90;4.40;;;;;;;12.37;27.58;99720.35;25134;1313;3026343;-71
2022/03/25 10:36:08;;;;;;;19.50;3.90;;;;;;;12.34;27.84;99718.05;25079;1318;3026603;-67
2022/03/25 10:39:00;;;;;;;12.20;4.30;;;;;;;12.40;27.72;99717.69;25116;1315;3053062;-68
2022/03/25 10:41:49;;;;;;;17.90;3.80;;;;;;;12.61;27.20;99714.35;25099;1315;3054163;-69
2022/03/25 10:44:52;;;;;;;16.90;4.20;;;;;;;12.58;27.16;99713.52;11690;1317;3070719;-74
2022/03/25 10:47:46;;;;;;;20.40;4.10;;;;;;;12.54;27.37;99718.54;19390;1315;3083007;-71
2022/03/25 10:50:15;;;;;;;16.10;3.80;;;;;;;12.64;26.78;99714.02;25156;1315;3027868;-72
2022/03/25 10:52:46;;;;;;;19.50;4.00;;;;;;;12.73;26.64;99709.38;25119;1315;3028672;-70
2022/03/25 10:55:23;;;;;;;13.70;4.50;;;;;;;12.73;26.41;99706.39;25145;1315;3027890;-71
2022/03/25 10:57:56;;;;;;;22.80;4.20;;;;;;;12.79;26.58;99705.31;25109;1315;3049988;-71
2022/03/25 11:00:25;;;;;;;13.20;4.00;;;;;;;12.99;26.65;99707.90;25129;1314;3026620;-69
2022/03/25 11:02:56;;;;;;;14.00;4.20;;;;;;;13.15;26.35;99707.33;25073;1315;3030265;-68
2022/03/25 11:05:25;;;;;;;22.30;5.10;;;;;;;12.99;26.09;99701.70;25091;1318;3027073;-70
2022/03/25 11:07:54;;;;;;;15.60;4.80;;;;;;;13.13;26.21;99702.89;25102;1315;3026650;-70
2022/03/25 11:10:23;;;;;;;21.40;5.20;;;;;;;13.23;26.15;99703.27;25119;1315;3026771;-70
2022/03/25 11:12:52;;;;;;;21.10;5.10;;;;;;;13.52;26.16;99699.88;25087;1315;3070689;-70
2022/03/25 11:15:21;;;;;;;15.40;4.70;;;;;;;13.75;25.36;99696.59;25129;1315;3027073;-68
2022/03/25 11:17:50;;;;;;;15.70;4.60;;;;;;;13.78;25.34;99693.70;25086;1315;3054083;-73
2022/03/25 11:20:21;;;;;;;19.80;5.00;;;;;;;13.56;25.27;99693.33;25076;1315;3026447;-72
2022/03/25 11:23:13;;;;;;;16.90;4.30;;;;;;;13.60;25.43;99693.89;25244;1315;3026443;-70
2022/03/25 11:25:50;;;;;;;22.30;4.40;;;;;;;13.71;25.00;99689.28;25171;1315;3052702;-71
2022/03/25 11:28:26;;;;;;;12.90;4.00;;;;;;;13.71;25.05;99691.37;25092;1315;3053135;-71
2022/03/25 11:31:00;;;;;;;22.00;4.80;;;;;;;13.82;25.05;99689.75;25113;1315;3059331;-71
2022/03/25 11:33:29;;;;;;;17.30;4.90;;;;;;;13.90;24.50;99685.66;25127;1315;3052909;-72
2022/03/25 11:36:21;;;;;;;12.70;4.10;;;;;;;13.84;24.59;99686.60;25131;1315;3026875;-67
2022/03/25 11:39:18;;;;;;;20.60;4.20;;;;;;;13.79;24.76;99686.04;25164;1314;3051761;-68
2022/03/25 11:41:50;;;;;;;21.40;4.50;;;;;;;13.95;24.91;99678.81;25118;1315;3070989;-68
2022/03/25 11:44:24;;;;;;;15.10;3.70;;;;;;;14.24;24.78;99683.41;25140;1315;3026480;-67